Terminal Aerodrome Forecast
Issued by NWS San Angelo, TX

Current Version | Previous Version | Text Only | Print | Product List | Glossary Off
Versions: 1 2 3 4 5 6 7 8 9 10 11 12 13 14 15 16 17 18 19 20 21 22 23

000
FTUS44 KSJT 270500
TAFSJT
TAF
KSJT 270525Z 2706/2806 05013KT P6SM BKN040
     FM271000 06011KT 4SM -SN BR OVC024
     FM271800 07009KT 6SM -FZDZSN BR OVC012
     FM280100 06008KT 4SM -FZDZ BR OVC006=

USA.gov is the U.S. government's official web portal to all federal, state and local government web resources and services.